sensor_id;sensor_type;location;lat;lon;timestamp;P1;durP1;ratioP1;P2;durP2;ratioP2
64688;SDS011;51114;46.070;14.492;2022-07-15T00:00:26;5.00;;;3.50;;
64688;SDS011;51114;46.070;14.492;2022-07-15T00:02:52;7.28;;;3.85;;
64688;SDS011;51114;46.070;14.492;2022-07-15T00:05:18;6.25;;;3.70;;
64688;SDS011;51114;46.070;14.492;2022-07-15T00:07:44;4.65;;;3.70;;
64688;SDS011;51114;46.070;14.492;2022-07-15T00:10:10;5.95;;;3.95;;
64688;SDS011;51114;46.070;14.492;2022-07-15T00:15:13;6.18;;;3.70;;
64688;SDS011;51114;46.070;14.492;2022-07-15T00:17:39;5.47;;;3.72;;
64688;SDS011;51114;46.070;14.492;2022-07-15T00:20:06;3.88;;;3.50;;
64688;SDS011;51114;46.070;14.492;2022-07-15T00:22:32;6.28;;;3.80;;
64688;SDS011;51114;46.070;14.492;2022-07-15T00:24:58;5.18;;;4.03;;
64688;SDS011;51114;46.070;14.492;2022-07-15T00:27:24;5.40;;;4.20;;
64688;SDS011;51114;46.070;14.492;2022-07-15T00:29:50;5.72;;;4.00;;
64688;SDS011;51114;46.070;14.492;2022-07-15T00:32:16;5.68;;;3.72;;
64688;SDS011;51114;46.070;14.492;2022-07-15T00:34:42;4.28;;;3.45;;
64688;SDS011;51114;46.070;14.492;2022-07-15T00:37:08;8.05;;;3.83;;
64688;SDS011;51114;46.070;14.492;2022-07-15T00:39:34;5.07;;;3.58;;
64688;SDS011;51114;46.070;14.492;2022-07-15T00:41:59;5.30;;;3.90;;
64688;SDS011;51114;46.070;14.492;2022-07-15T00:44:25;4.40;;;3.60;;
64688;SDS011;51114;46.070;14.492;2022-07-15T00:46:51;5.80;;;3.25;;
64688;SDS011;51114;46.070;14.492;2022-07-15T00:49:18;6.55;;;3.75;;
64688;SDS011;51114;46.070;14.492;2022-07-15T00:51:46;3.55;;;3.25;;
64688;SDS011;51114;46.070;14.492;2022-07-15T00:54:13;4.80;;;3.70;;
64688;SDS011;51114;46.070;14.492;2022-07-15T00:56:42;7.22;;;3.85;;
64688;SDS011;51114;46.070;14.492;2022-07-15T00:59:29;5.75;;;3.90;;
64688;SDS011;51114;46.070;14.492;2022-07-15T01:01:58;5.93;;;3.70;;
64688;SDS011;51114;46.070;14.492;2022-07-15T01:04:23;7.07;;;3.60;;
64688;SDS011;51114;46.070;14.492;2022-07-15T01:06:51;4.47;;;3.85;;
64688;SDS011;51114;46.070;14.492;2022-07-15T01:09:16;7.65;;;4.72;;
64688;SDS011;51114;46.070;14.492;2022-07-15T01:11:44;6.38;;;5.05;;
64688;SDS011;51114;46.070;14.492;2022-07-15T01:14:10;8.52;;;5.00;;
64688;SDS011;51114;46.070;14.492;2022-07-15T01:16:35;10.98;;;5.60;;
64688;SDS011;51114;46.070;14.492;2022-07-15T01:19:01;8.40;;;6.13;;
64688;SDS011;51114;46.070;14.492;2022-07-15T01:21:27;8.95;;;5.90;;
64688;SDS011;51114;46.070;14.492;2022-07-15T01:23:53;10.20;;;6.63;;
64688;SDS011;51114;46.070;14.492;2022-07-15T01:26:18;9.63;;;6.47;;
64688;SDS011;51114;46.070;14.492;2022-07-15T01:28:44;8.33;;;6.47;;
64688;SDS011;51114;46.070;14.492;2022-07-15T01:31:09;9.65;;;6.40;;
64688;SDS011;51114;46.070;14.492;2022-07-15T01:33:35;7.17;;;6.13;;
64688;SDS011;51114;46.070;14.492;2022-07-15T01:36:03;7.43;;;6.07;;
64688;SDS011;51114;46.070;14.492;2022-07-15T01:38:29;7.33;;;5.73;;
64688;SDS011;51114;46.070;14.492;2022-07-15T01:40:55;7.90;;;6.05;;
64688;SDS011;51114;46.070;14.492;2022-07-15T01:43:22;7.33;;;6.03;;
64688;SDS011;51114;46.070;14.492;2022-07-15T01:45:48;8.63;;;6.10;;
64688;SDS011;51114;46.070;14.492;2022-07-15T01:48:14;8.97;;;6.30;;
64688;SDS011;51114;46.070;14.492;2022-07-15T01:50:59;10.40;;;6.73;;
64688;SDS011;51114;46.070;14.492;2022-07-15T01:53:26;11.43;;;7.10;;
64688;SDS011;51114;46.070;14.492;2022-07-15T01:55:54;13.20;;;7.60;;
64688;SDS011;51114;46.070;14.492;2022-07-15T01:58:20;10.32;;;7.55;;
64688;SDS011;51114;46.070;14.492;2022-07-15T02:00:46;11.40;;;7.68;;
64688;SDS011;51114;46.070;14.492;2022-07-15T02:03:12;10.18;;;7.60;;
64688;SDS011;51114;46.070;14.492;2022-07-15T02:05:38;11.07;;;7.60;;
64688;SDS011;51114;46.070;14.492;2022-07-15T02:08:04;9.07;;;7.17;;
64688;SDS011;51114;46.070;14.492;2022-07-15T02:10:30;11.83;;;7.50;;
64688;SDS011;51114;46.070;14.492;2022-07-15T02:13:06;11.50;;;7.77;;
64688;SDS011;51114;46.070;14.492;2022-07-15T02:15:32;11.10;;;7.63;;
64688;SDS011;51114;46.070;14.492;2022-07-15T02:17:59;11.60;;;8.30;;
64688;SDS011;51114;46.070;14.492;2022-07-15T02:20:24;11.93;;;7.50;;
64688;SDS011;51114;46.070;14.492;2022-07-15T02:22:50;12.00;;;7.83;;
64688;SDS011;51114;46.070;14.492;2022-07-15T02:25:16;11.33;;;7.80;;
64688;SDS011;51114;46.070;14.492;2022-07-15T02:27:42;10.35;;;7.88;;
64688;SDS011;51114;46.070;14.492;2022-07-15T02:30:07;11.93;;;7.80;;
64688;SDS011;51114;46.070;14.492;2022-07-15T02:32:33;13.60;;;7.67;;
64688;SDS011;51114;46.070;14.492;2022-07-15T02:34:59;9.47;;;6.83;;
64688;SDS011;51114;46.070;14.492;2022-07-15T02:37:25;9.83;;;7.10;;
64688;SDS011;51114;46.070;14.492;2022-07-15T02:39:50;10.07;;;6.73;;
64688;SDS011;51114;46.070;14.492;2022-07-15T02:42:16;10.60;;;6.90;;
64688;SDS011;51114;46.070;14.492;2022-07-15T02:44:41;10.53;;;7.03;;
64688;SDS011;51114;46.070;14.492;2022-07-15T02:47:07;9.40;;;7.10;;
64688;SDS011;51114;46.070;14.492;2022-07-15T02:49:32;11.20;;;7.43;;
64688;SDS011;51114;46.070;14.492;2022-07-15T02:51:58;9.40;;;7.57;;
64688;SDS011;51114;46.070;14.492;2022-07-15T02:54:24;10.63;;;7.70;;
64688;SDS011;51114;46.070;14.492;2022-07-15T02:56:49;10.00;;;7.60;;
64688;SDS011;51114;46.070;14.492;2022-07-15T02:59:15;12.80;;;7.90;;
64688;SDS011;51114;46.070;14.492;2022-07-15T03:01:40;9.60;;;7.17;;
64688;SDS011;51114;46.070;14.492;2022-07-15T03:04:06;10.60;;;7.07;;
64688;SDS011;51114;46.070;14.492;2022-07-15T03:06:32;9.73;;;7.33;;
64688;SDS011;51114;46.070;14.492;2022-07-15T03:08:58;12.43;;;8.17;;
64688;SDS011;51114;46.070;14.492;2022-07-15T03:11:24;12.83;;;7.37;;
64688;SDS011;51114;46.070;14.492;2022-07-15T03:13:50;15.93;;;8.37;;
64688;SDS011;51114;46.070;14.492;2022-07-15T03:16:16;12.43;;;8.50;;
64688;SDS011;51114;46.070;14.492;2022-07-15T03:18:41;13.67;;;9.17;;
64688;SDS011;51114;46.070;14.492;2022-07-15T03:21:07;12.67;;;8.47;;
64688;SDS011;51114;46.070;14.492;2022-07-15T03:23:33;13.03;;;8.57;;
64688;SDS011;51114;46.070;14.492;2022-07-15T03:25:58;13.23;;;8.30;;
64688;SDS011;51114;46.070;14.492;2022-07-15T03:28:24;11.93;;;7.70;;
64688;SDS011;51114;46.070;14.492;2022-07-15T03:30:49;13.23;;;7.93;;
64688;SDS011;51114;46.070;14.492;2022-07-15T03:33:15;12.50;;;8.27;;
64688;SDS011;51114;46.070;14.492;2022-07-15T03:35:41;11.67;;;8.17;;
64688;SDS011;51114;46.070;14.492;2022-07-15T03:38:08;11.77;;;7.93;;
64688;SDS011;51114;46.070;14.492;2022-07-15T03:40:34;11.73;;;7.63;;
64688;SDS011;51114;46.070;14.492;2022-07-15T03:42:59;12.27;;;8.07;;
64688;SDS011;51114;46.070;14.492;2022-07-15T03:45:25;10.07;;;7.57;;
64688;SDS011;51114;46.070;14.492;2022-07-15T03:47:51;10.73;;;7.97;;
64688;SDS011;51114;46.070;14.492;2022-07-15T03:50:16;13.47;;;7.93;;
64688;SDS011;51114;46.070;14.492;2022-07-15T03:52:42;12.90;;;7.83;;
64688;SDS011;51114;46.070;14.492;2022-07-15T03:55:08;11.90;;;7.07;;
64688;SDS011;51114;46.070;14.492;2022-07-15T03:57:34;11.13;;;7.90;;
64688;SDS011;51114;46.070;14.492;2022-07-15T04:00:00;10.73;;;8.10;;
64688;SDS011;51114;46.070;14.492;2022-07-15T04:02:26;9.87;;;7.50;;
64688;SDS011;51114;46.070;14.492;2022-07-15T04:04:52;8.80;;;7.17;;
64688;SDS011;51114;46.070;14.492;2022-07-15T04:07:17;12.43;;;7.97;;
64688;SDS011;51114;46.070;14.492;2022-07-15T04:09:43;11.90;;;7.80;;
64688;SDS011;51114;46.070;14.492;2022-07-15T04:12:08;10.13;;;8.13;;
64688;SDS011;51114;46.070;14.492;2022-07-15T04:14:35;12.53;;;8.03;;
64688;SDS011;51114;46.070;14.492;2022-07-15T04:17:01;10.63;;;8.30;;
64688;SDS011;51114;46.070;14.492;2022-07-15T04:19:27;10.20;;;8.03;;
64688;SDS011;51114;46.070;14.492;2022-07-15T04:21:53;15.83;;;9.23;;
64688;SDS011;51114;46.070;14.492;2022-07-15T04:24:19;14.53;;;8.20;;
64688;SDS011;51114;46.070;14.492;2022-07-15T04:26:45;12.77;;;8.20;;
64688;SDS011;51114;46.070;14.492;2022-07-15T04:29:10;17.03;;;8.27;;
64688;SDS011;51114;46.070;14.492;2022-07-15T04:31:36;16.23;;;10.10;;
64688;SDS011;51114;46.070;14.492;2022-07-15T04:34:01;10.47;;;8.20;;
64688;SDS011;51114;46.070;14.492;2022-07-15T04:36:27;13.93;;;8.00;;
64688;SDS011;51114;46.070;14.492;2022-07-15T04:38:53;12.30;;;8.40;;
64688;SDS011;51114;46.070;14.492;2022-07-15T04:41:18;11.60;;;8.43;;
64688;SDS011;51114;46.070;14.492;2022-07-15T04:43:44;12.60;;;8.53;;
64688;SDS011;51114;46.070;14.492;2022-07-15T04:46:10;13.77;;;8.30;;
64688;SDS011;51114;46.070;14.492;2022-07-15T04:48:36;13.97;;;7.73;;
64688;SDS011;51114;46.070;14.492;2022-07-15T04:51:20;10.57;;;7.93;;
64688;SDS011;51114;46.070;14.492;2022-07-15T04:53:46;15.20;;;8.40;;
64688;SDS011;51114;46.070;14.492;2022-07-15T04:56:12;12.93;;;8.30;;
64688;SDS011;51114;46.070;14.492;2022-07-15T04:58:38;14.43;;;7.90;;
64688;SDS011;51114;46.070;14.492;2022-07-15T05:01:04;11.47;;;7.70;;
64688;SDS011;51114;46.070;14.492;2022-07-15T05:03:30;12.23;;;8.17;;
64688;SDS011;51114;46.070;14.492;2022-07-15T05:05:55;18.10;;;7.80;;
64688;SDS011;51114;46.070;14.492;2022-07-15T05:08:21;15.70;;;7.63;;
64688;SDS011;51114;46.070;14.492;2022-07-15T05:10:47;11.17;;;7.10;;
64688;SDS011;51114;46.070;14.492;2022-07-15T05:13:12;13.00;;;7.80;;
64688;SDS011;51114;46.070;14.492;2022-07-15T05:15:38;9.00;;;6.30;;
64688;SDS011;51114;46.070;14.492;2022-07-15T05:18:04;9.93;;;6.93;;
64688;SDS011;51114;46.070;14.492;2022-07-15T05:20:30;10.25;;;6.22;;
64688;SDS011;51114;46.070;14.492;2022-07-15T05:22:56;11.45;;;6.50;;
64688;SDS011;51114;46.070;14.492;2022-07-15T05:25:21;8.03;;;6.50;;
64688;SDS011;51114;46.070;14.492;2022-07-15T05:27:47;11.93;;;6.35;;
64688;SDS011;51114;46.070;14.492;2022-07-15T05:30:13;9.02;;;5.63;;
64688;SDS011;51114;46.070;14.492;2022-07-15T05:32:41;7.28;;;6.00;;
64688;SDS011;51114;46.070;14.492;2022-07-15T05:35:07;11.40;;;6.17;;
64688;SDS011;51114;46.070;14.492;2022-07-15T05:37:36;10.45;;;5.70;;
64688;SDS011;51114;46.070;14.492;2022-07-15T05:40:04;13.35;;;7.07;;
64688;SDS011;51114;46.070;14.492;2022-07-15T05:42:31;7.07;;;5.35;;
64688;SDS011;51114;46.070;14.492;2022-07-15T05:44:57;19.70;;;9.27;;
64688;SDS011;51114;46.070;14.492;2022-07-15T05:47:22;12.68;;;6.57;;
64688;SDS011;51114;46.070;14.492;2022-07-15T05:49:48;11.23;;;5.30;;
64688;SDS011;51114;46.070;14.492;2022-07-15T05:52:14;8.20;;;5.47;;
64688;SDS011;51114;46.070;14.492;2022-07-15T05:54:39;10.18;;;5.20;;
64688;SDS011;51114;46.070;14.492;2022-07-15T05:57:05;12.40;;;5.00;;
64688;SDS011;51114;46.070;14.492;2022-07-15T05:59:31;5.97;;;4.47;;
64688;SDS011;51114;46.070;14.492;2022-07-15T06:01:57;7.60;;;4.28;;
64688;SDS011;51114;46.070;14.492;2022-07-15T06:04:23;8.90;;;4.03;;
64688;SDS011;51114;46.070;14.492;2022-07-15T06:06:51;5.22;;;4.32;;
64688;SDS011;51114;46.070;14.492;2022-07-15T06:09:18;5.47;;;3.80;;
64688;SDS011;51114;46.070;14.492;2022-07-15T06:11:44;8.30;;;4.05;;
64688;SDS011;51114;46.070;14.492;2022-07-15T06:14:10;7.20;;;4.25;;
64688;SDS011;51114;46.070;14.492;2022-07-15T06:16:36;5.72;;;3.58;;
64688;SDS011;51114;46.070;14.492;2022-07-15T06:19:01;9.15;;;4.10;;
64688;SDS011;51114;46.070;14.492;2022-07-15T06:21:28;7.03;;;4.00;;
64688;SDS011;51114;46.070;14.492;2022-07-15T06:23:55;8.35;;;4.45;;
64688;SDS011;51114;46.070;14.492;2022-07-15T06:26:20;7.72;;;3.80;;
64688;SDS011;51114;46.070;14.492;2022-07-15T06:28:46;10.77;;;4.18;;
64688;SDS011;51114;46.070;14.492;2022-07-15T06:31:12;10.82;;;6.40;;
64688;SDS011;51114;46.070;14.492;2022-07-15T06:33:38;7.30;;;4.68;;
64688;SDS011;51114;46.070;14.492;2022-07-15T06:36:03;6.57;;;4.00;;
64688;SDS011;51114;46.070;14.492;2022-07-15T06:38:30;8.73;;;4.65;;
64688;SDS011;51114;46.070;14.492;2022-07-15T06:40:57;6.90;;;4.28;;
64688;SDS011;51114;46.070;14.492;2022-07-15T06:43:22;6.57;;;4.00;;
64688;SDS011;51114;46.070;14.492;2022-07-15T06:45:48;10.75;;;6.00;;
64688;SDS011;51114;46.070;14.492;2022-07-15T06:48:14;7.00;;;4.10;;
64688;SDS011;51114;46.070;14.492;2022-07-15T06:50:39;6.70;;;3.80;;
64688;SDS011;51114;46.070;14.492;2022-07-15T06:53:05;7.38;;;4.03;;
64688;SDS011;51114;46.070;14.492;2022-07-15T06:55:31;6.68;;;4.13;;
64688;SDS011;51114;46.070;14.492;2022-07-15T06:57:56;7.63;;;4.43;;
64688;SDS011;51114;46.070;14.492;2022-07-15T07:00:22;11.57;;;7.78;;
64688;SDS011;51114;46.070;14.492;2022-07-15T07:02:48;10.90;;;4.00;;
64688;SDS011;51114;46.070;14.492;2022-07-15T07:05:14;9.10;;;3.80;;
64688;SDS011;51114;46.070;14.492;2022-07-15T07:07:40;7.25;;;3.70;;
64688;SDS011;51114;46.070;14.492;2022-07-15T07:10:06;8.32;;;4.85;;
64688;SDS011;51114;46.070;14.492;2022-07-15T07:12:33;7.05;;;4.32;;
64688;SDS011;51114;46.070;14.492;2022-07-15T07:14:59;5.85;;;3.63;;
64688;SDS011;51114;46.070;14.492;2022-07-15T07:17:27;11.68;;;8.20;;
64688;SDS011;51114;46.070;14.492;2022-07-15T07:19:52;6.68;;;3.97;;
64688;SDS011;51114;46.070;14.492;2022-07-15T07:22:18;6.25;;;3.67;;
64688;SDS011;51114;46.070;14.492;2022-07-15T07:24:44;4.95;;;3.95;;
64688;SDS011;51114;46.070;14.492;2022-07-15T07:27:10;13.23;;;4.00;;
64688;SDS011;51114;46.070;14.492;2022-07-15T07:29:36;7.13;;;4.00;;
64688;SDS011;51114;46.070;14.492;2022-07-15T07:32:01;6.28;;;4.38;;
64688;SDS011;51114;46.070;14.492;2022-07-15T07:34:27;8.98;;;4.00;;
64688;SDS011;51114;46.070;14.492;2022-07-15T07:36:53;4.68;;;3.83;;
64688;SDS011;51114;46.070;14.492;2022-07-15T07:39:19;7.20;;;3.75;;
64688;SDS011;51114;46.070;14.492;2022-07-15T07:41:44;4.68;;;3.70;;
64688;SDS011;51114;46.070;14.492;2022-07-15T07:44:10;6.18;;;3.60;;
64688;SDS011;51114;46.070;14.492;2022-07-15T07:46:36;6.03;;;4.07;;
64688;SDS011;51114;46.070;14.492;2022-07-15T07:49:02;6.85;;;3.90;;
64688;SDS011;51114;46.070;14.492;2022-07-15T07:51:28;4.18;;;3.70;;
64688;SDS011;51114;46.070;14.492;2022-07-15T07:53:54;6.88;;;3.53;;
64688;SDS011;51114;46.070;14.492;2022-07-15T07:56:20;6.15;;;3.08;;
64688;SDS011;51114;46.070;14.492;2022-07-15T07:58:46;7.28;;;3.10;;
64688;SDS011;51114;46.070;14.492;2022-07-15T08:01:12;4.82;;;2.97;;
64688;SDS011;51114;46.070;14.492;2022-07-15T08:03:37;6.30;;;3.20;;
64688;SDS011;51114;46.070;14.492;2022-07-15T08:06:03;6.45;;;4.10;;
64688;SDS011;51114;46.070;14.492;2022-07-15T08:08:29;4.45;;;2.70;;
64688;SDS011;51114;46.070;14.492;2022-07-15T08:10:55;3.10;;;2.80;;
64688;SDS011;51114;46.070;14.492;2022-07-15T08:13:23;4.65;;;2.95;;
64688;SDS011;51114;46.070;14.492;2022-07-15T08:15:50;4.25;;;2.63;;
64688;SDS011;51114;46.070;14.492;2022-07-15T08:18:18;3.22;;;2.70;;
64688;SDS011;51114;46.070;14.492;2022-07-15T08:20:45;4.18;;;2.72;;
64688;SDS011;51114;46.070;14.492;2022-07-15T08:23:10;3.97;;;2.50;;
64688;SDS011;51114;46.070;14.492;2022-07-15T08:25:36;4.32;;;2.58;;
64688;SDS011;51114;46.070;14.492;2022-07-15T08:28:03;5.18;;;2.60;;
64688;SDS011;51114;46.070;14.492;2022-07-15T08:30:30;5.07;;;2.70;;
64688;SDS011;51114;46.070;14.492;2022-07-15T08:32:58;5.55;;;2.55;;
64688;SDS011;51114;46.070;14.492;2022-07-15T08:35:25;5.85;;;2.95;;
64688;SDS011;51114;46.070;14.492;2022-07-15T08:37:51;6.85;;;2.88;;
64688;SDS011;51114;46.070;14.492;2022-07-15T08:40:17;4.25;;;2.60;;
64688;SDS011;51114;46.070;14.492;2022-07-15T08:42:43;3.38;;;2.60;;
64688;SDS011;51114;46.070;14.492;2022-07-15T08:45:11;6.25;;;2.60;;
64688;SDS011;51114;46.070;14.492;2022-07-15T08:47:39;5.53;;;2.50;;
64688;SDS011;51114;46.070;14.492;2022-07-15T08:50:08;6.25;;;2.53;;
64688;SDS011;51114;46.070;14.492;2022-07-15T08:52:36;3.78;;;2.50;;
64688;SDS011;51114;46.070;14.492;2022-07-15T08:55:02;4.60;;;2.63;;
64688;SDS011;51114;46.070;14.492;2022-07-15T08:57:29;3.70;;;2.40;;
64688;SDS011;51114;46.070;14.492;2022-07-15T08:59:55;6.80;;;2.40;;
64688;SDS011;51114;46.070;14.492;2022-07-15T09:02:21;10.45;;;2.70;;
64688;SDS011;51114;46.070;14.492;2022-07-15T09:07:59;2.85;;;2.50;;
64688;SDS011;51114;46.070;14.492;2022-07-15T09:10:50;4.65;;;2.67;;
64688;SDS011;51114;46.070;14.492;2022-07-15T09:15:54;5.60;;;2.65;;
64688;SDS011;51114;46.070;14.492;2022-07-15T09:18:21;6.57;;;2.70;;
64688;SDS011;51114;46.070;14.492;2022-07-15T09:20:49;5.22;;;3.42;;
64688;SDS011;51114;46.070;14.492;2022-07-15T09:23:16;4.15;;;2.60;;
64688;SDS011;51114;46.070;14.492;2022-07-15T09:25:46;4.57;;;2.70;;
64688;SDS011;51114;46.070;14.492;2022-07-15T09:28:14;3.80;;;2.70;;
64688;SDS011;51114;46.070;14.492;2022-07-15T09:30:41;5.18;;;2.50;;
64688;SDS011;51114;46.070;14.492;2022-07-15T09:33:32;6.30;;;2.55;;
64688;SDS011;51114;46.070;14.492;2022-07-15T09:38:34;6.43;;;3.15;;
64688;SDS011;51114;46.070;14.492;2022-07-15T09:41:10;5.55;;;3.00;;
64688;SDS011;51114;46.070;14.492;2022-07-15T09:49:38;2.70;;;2.50;;
64688;SDS011;51114;46.070;14.492;2022-07-15T09:52:11;11.75;;;2.72;;
64688;SDS011;51114;46.070;14.492;2022-07-15T09:54:40;4.60;;;2.80;;
64688;SDS011;51114;46.070;14.492;2022-07-15T09:57:14;6.47;;;2.60;;
64688;SDS011;51114;46.070;14.492;2022-07-15T09:59:42;8.63;;;2.60;;
64688;SDS011;51114;46.070;14.492;2022-07-15T10:02:10;3.95;;;2.65;;
64688;SDS011;51114;46.070;14.492;2022-07-15T10:04:37;6.82;;;3.20;;
64688;SDS011;51114;46.070;14.492;2022-07-15T10:07:03;4.43;;;2.90;;
64688;SDS011;51114;46.070;14.492;2022-07-15T10:09:30;2.90;;;2.45;;
64688;SDS011;51114;46.070;14.492;2022-07-15T10:11:59;9.10;;;2.85;;
64688;SDS011;51114;46.070;14.492;2022-07-15T10:14:51;5.88;;;2.80;;
64688;SDS011;51114;46.070;14.492;2022-07-15T10:20:02;7.72;;;3.05;;
64688;SDS011;51114;46.070;14.492;2022-07-15T10:25:53;5.88;;;3.00;;
64688;SDS011;51114;46.070;14.492;2022-07-15T10:31:28;4.35;;;3.22;;
64688;SDS011;51114;46.070;14.492;2022-07-15T10:39:17;5.25;;;3.20;;
64688;SDS011;51114;46.070;14.492;2022-07-15T10:41:51;5.30;;;3.00;;
64688;SDS011;51114;46.070;14.492;2022-07-15T10:44:29;4.38;;;2.65;;
64688;SDS011;51114;46.070;14.492;2022-07-15T10:49:37;3.97;;;2.92;;
64688;SDS011;51114;46.070;14.492;2022-07-15T10:52:25;5.40;;;2.97;;
64688;SDS011;51114;46.070;14.492;2022-07-15T11:00:05;6.53;;;3.65;;
64688;SDS011;51114;46.070;14.492;2022-07-15T11:13:44;6.85;;;2.88;;
64688;SDS011;51114;46.070;14.492;2022-07-15T11:16:11;4.55;;;2.95;;
64688;SDS011;51114;46.070;14.492;2022-07-15T11:18:46;3.55;;;2.90;;
64688;SDS011;51114;46.070;14.492;2022-07-15T11:21:12;4.40;;;3.33;;
64688;SDS011;51114;46.070;14.492;2022-07-15T11:23:38;7.53;;;2.97;;
64688;SDS011;51114;46.070;14.492;2022-07-15T11:26:04;3.53;;;3.22;;
64688;SDS011;51114;46.070;14.492;2022-07-15T11:28:30;4.78;;;3.20;;
64688;SDS011;51114;46.070;14.492;2022-07-15T11:30:56;5.20;;;3.25;;
64688;SDS011;51114;46.070;14.492;2022-07-15T11:33:23;6.97;;;3.05;;
64688;SDS011;51114;46.070;14.492;2022-07-15T11:35:58;5.70;;;3.25;;
64688;SDS011;51114;46.070;14.492;2022-07-15T11:38:30;5.25;;;3.10;;
64688;SDS011;51114;46.070;14.492;2022-07-15T11:41:02;7.00;;;3.10;;
64688;SDS011;51114;46.070;14.492;2022-07-15T11:43:57;4.18;;;3.15;;
64688;SDS011;51114;46.070;14.492;2022-07-15T11:46:43;5.57;;;3.10;;
64688;SDS011;51114;46.070;14.492;2022-07-15T11:49:10;5.10;;;3.13;;
64688;SDS011;51114;46.070;14.492;2022-07-15T11:51:35;3.35;;;3.05;;
64688;SDS011;51114;46.070;14.492;2022-07-15T11:54:04;6.20;;;3.20;;
64688;SDS011;51114;46.070;14.492;2022-07-15T11:56:29;4.50;;;3.13;;
64688;SDS011;51114;46.070;14.492;2022-07-15T11:58:56;4.82;;;3.25;;
64688;SDS011;51114;46.070;14.492;2022-07-15T12:01:24;3.42;;;3.13;;
64688;SDS011;51114;46.070;14.492;2022-07-15T12:03:55;4.55;;;3.20;;
64688;SDS011;51114;46.070;14.492;2022-07-15T12:09:02;4.10;;;3.08;;
64688;SDS011;51114;46.070;14.492;2022-07-15T12:11:33;3.78;;;3.10;;
64688;SDS011;51114;46.070;14.492;2022-07-15T12:19:29;4.50;;;3.13;;
64688;SDS011;51114;46.070;14.492;2022-07-15T12:21:53;5.32;;;3.42;;
64688;SDS011;51114;46.070;14.492;2022-07-15T12:24:23;4.85;;;3.28;;
64688;SDS011;51114;46.070;14.492;2022-07-15T12:29:20;6.38;;;3.30;;
64688;SDS011;51114;46.070;14.492;2022-07-15T12:42:31;4.97;;;3.20;;
64688;SDS011;51114;46.070;14.492;2022-07-15T12:45:17;6.03;;;3.10;;
64688;SDS011;51114;46.070;14.492;2022-07-15T12:53:14;4.38;;;3.13;;
64688;SDS011;51114;46.070;14.492;2022-07-15T12:55:46;3.83;;;3.28;;
64688;SDS011;51114;46.070;14.492;2022-07-15T12:58:13;7.03;;;3.13;;
64688;SDS011;51114;46.070;14.492;2022-07-15T13:00:40;3.47;;;3.05;;
64688;SDS011;51114;46.070;14.492;2022-07-15T13:05:44;4.05;;;2.92;;
64688;SDS011;51114;46.070;14.492;2022-07-15T13:08:12;3.85;;;3.00;;
64688;SDS011;51114;46.070;14.492;2022-07-15T13:11:05;7.45;;;3.40;;
64688;SDS011;51114;46.070;14.492;2022-07-15T13:13:33;3.30;;;3.00;;
64688;SDS011;51114;46.070;14.492;2022-07-15T13:16:02;4.18;;;3.40;;
64688;SDS011;51114;46.070;14.492;2022-07-15T13:18:29;4.22;;;2.97;;
64688;SDS011;51114;46.070;14.492;2022-07-15T13:20:56;7.90;;;3.08;;
64688;SDS011;51114;46.070;14.492;2022-07-15T13:23:22;5.88;;;3.35;;
64688;SDS011;51114;46.070;14.492;2022-07-15T13:25:48;4.80;;;3.28;;
64688;SDS011;51114;46.070;14.492;2022-07-15T13:28:16;5.43;;;3.20;;
64688;SDS011;51114;46.070;14.492;2022-07-15T13:30:42;5.72;;;3.03;;
64688;SDS011;51114;46.070;14.492;2022-07-15T13:33:07;5.05;;;3.22;;
64688;SDS011;51114;46.070;14.492;2022-07-15T13:35:33;6.78;;;3.33;;
64688;SDS011;51114;46.070;14.492;2022-07-15T13:37:59;6.45;;;3.58;;
64688;SDS011;51114;46.070;14.492;2022-07-15T13:40:25;7.13;;;3.42;;
64688;SDS011;51114;46.070;14.492;2022-07-15T13:42:50;4.30;;;3.05;;
64688;SDS011;51114;46.070;14.492;2022-07-15T13:45:17;4.13;;;2.88;;
64688;SDS011;51114;46.070;14.492;2022-07-15T13:47:43;6.32;;;3.00;;
64688;SDS011;51114;46.070;14.492;2022-07-15T13:50:09;7.63;;;3.10;;
64688;SDS011;51114;46.070;14.492;2022-07-15T13:52:55;4.07;;;3.03;;
64688;SDS011;51114;46.070;14.492;2022-07-15T13:55:22;3.78;;;3.00;;
64688;SDS011;51114;46.070;14.492;2022-07-15T13:57:49;4.15;;;3.22;;
64688;SDS011;51114;46.070;14.492;2022-07-15T14:00:16;6.25;;;3.13;;
64688;SDS011;51114;46.070;14.492;2022-07-15T14:02:44;7.30;;;3.28;;
64688;SDS011;51114;46.070;14.492;2022-07-15T14:05:10;6.07;;;3.50;;
64688;SDS011;51114;46.070;14.492;2022-07-15T14:07:37;5.70;;;3.60;;
64688;SDS011;51114;46.070;14.492;2022-07-15T14:10:03;5.28;;;3.42;;
64688;SDS011;51114;46.070;14.492;2022-07-15T14:12:29;5.05;;;3.28;;
64688;SDS011;51114;46.070;14.492;2022-07-15T14:14:55;5.55;;;3.28;;
64688;SDS011;51114;46.070;14.492;2022-07-15T14:17:21;4.30;;;3.22;;
64688;SDS011;51114;46.070;14.492;2022-07-15T14:19:47;3.85;;;3.40;;
64688;SDS011;51114;46.070;14.492;2022-07-15T14:22:12;4.00;;;3.55;;
64688;SDS011;51114;46.070;14.492;2022-07-15T14:24:38;4.43;;;3.40;;
64688;SDS011;51114;46.070;14.492;2022-07-15T14:27:04;4.45;;;3.60;;
64688;SDS011;51114;46.070;14.492;2022-07-15T14:29:30;5.45;;;3.17;;
64688;SDS011;51114;46.070;14.492;2022-07-15T14:31:56;4.38;;;3.40;;
64688;SDS011;51114;46.070;14.492;2022-07-15T14:34:21;5.07;;;3.30;;
64688;SDS011;51114;46.070;14.492;2022-07-15T14:36:47;4.10;;;3.22;;
64688;SDS011;51114;46.070;14.492;2022-07-15T14:39:13;5.68;;;3.40;;
64688;SDS011;51114;46.070;14.492;2022-07-15T14:41:39;5.22;;;3.38;;
64688;SDS011;51114;46.070;14.492;2022-07-15T14:44:05;5.95;;;3.67;;
64688;SDS011;51114;46.070;14.492;2022-07-15T14:46:31;4.30;;;3.50;;
64688;SDS011;51114;46.070;14.492;2022-07-15T14:48:56;4.53;;;3.50;;
64688;SDS011;51114;46.070;14.492;2022-07-15T14:51:22;5.65;;;3.50;;
64688;SDS011;51114;46.070;14.492;2022-07-15T14:53:48;4.18;;;3.50;;
64688;SDS011;51114;46.070;14.492;2022-07-15T14:56:14;5.65;;;3.60;;
64688;SDS011;51114;46.070;14.492;2022-07-15T14:58:40;4.22;;;3.78;;
64688;SDS011;51114;46.070;14.492;2022-07-15T15:01:05;5.43;;;3.85;;
64688;SDS011;51114;46.070;14.492;2022-07-15T15:03:31;5.43;;;3.80;;
64688;SDS011;51114;46.070;14.492;2022-07-15T15:05:57;4.72;;;3.40;;
64688;SDS011;51114;46.070;14.492;2022-07-15T15:08:23;5.25;;;3.75;;
64688;SDS011;51114;46.070;14.492;2022-07-15T15:10:49;6.70;;;4.00;;
64688;SDS011;51114;46.070;14.492;2022-07-15T15:13:15;5.95;;;3.83;;
64688;SDS011;51114;46.070;14.492;2022-07-15T15:15:41;6.00;;;3.38;;
64688;SDS011;51114;46.070;14.492;2022-07-15T15:18:07;4.93;;;3.40;;
64688;SDS011;51114;46.070;14.492;2022-07-15T15:20:33;5.18;;;3.28;;
64688;SDS011;51114;46.070;14.492;2022-07-15T15:22:59;4.47;;;3.35;;
64688;SDS011;51114;46.070;14.492;2022-07-15T15:25:24;4.15;;;3.25;;
64688;SDS011;51114;46.070;14.492;2022-07-15T15:28:08;5.70;;;3.60;;
64688;SDS011;51114;46.070;14.492;2022-07-15T15:30:34;3.47;;;3.17;;
64688;SDS011;51114;46.070;14.492;2022-07-15T15:33:00;3.83;;;3.50;;
64688;SDS011;51114;46.070;14.492;2022-07-15T15:35:26;8.55;;;3.50;;
64688;SDS011;51114;46.070;14.492;2022-07-15T15:37:52;4.05;;;3.38;;
64688;SDS011;51114;46.070;14.492;2022-07-15T15:40:18;3.72;;;3.40;;
64688;SDS011;51114;46.070;14.492;2022-07-15T15:42:43;4.43;;;3.60;;
64688;SDS011;51114;46.070;14.492;2022-07-15T15:45:09;9.20;;;3.47;;
64688;SDS011;51114;46.070;14.492;2022-07-15T15:47:35;6.95;;;3.30;;
64688;SDS011;51114;46.070;14.492;2022-07-15T15:50:01;5.28;;;3.65;;